Terminal Aerodrome Forecast
Issued by NWS

Current Version | Previous Version | Text Only | Print | Product List | Glossary On
Versions: 1 2 3 4 5 6 7 8 9 10 11 12 13
998
FTUS46 KEKA 091736
TAFUKI
TAF
KUKI 091736Z 0918/1018 00000KT P6SM BKN250
     FM092100 25004KT P6SM BKN250
     FM100600 16003KT P6SM FEW150 BKN250
     FM100900 00000KT 6SM BR SCT200=

USA.gov is the U.S. government's official web portal to all federal, state and local government web resources and services.